Time;durP1;ratioP1;P1;durP2;ratioP2;P2;SDS_P1;SDS_P2;PMS_P1;PMS_P2;Temp;Humidity;BMP_temperature;BMP_pressure;BME280_temperature;BME280_humidity;BME280_pressure;Samples;Min_cycle;Max_cycle;Signal;HPM_P1;HPM_P2
2022/06/05 00:05:19;;;;;;;3.90;3.08;;;;;;;17.34;75.69;101811.50;20791410;28;20054;-76
2022/06/05 00:15:21;;;;;;;3.60;2.85;;;;;;;17.27;75.66;101789.53;20790423;28;20111;-76
2022/06/05 00:25:24;;;;;;;2.92;2.60;;;;;;;17.33;75.56;101777.47;20787789;28;20076;-75
2022/06/05 00:35:32;;;;;;;4.78;3.15;;;;;;;17.32;75.32;101765.00;20786655;28;20042;-76
2022/06/05 00:45:35;;;;;;;3.22;2.80;;;;;;;17.32;75.26;101762.28;20788987;28;20041;-76
2022/06/05 00:55:48;;;;;;;3.80;3.10;;;;;;;17.14;75.22;101727.66;20817797;28;20045;-76
2022/06/05 01:05:50;;;;;;;3.20;2.88;;;;;;;17.30;75.05;101740.03;20835028;28;20121;-76
2022/06/05 01:15:57;;;;;;;4.15;2.70;;;;;;;17.29;74.86;101719.47;20801796;28;20102;-76
2022/06/05 01:26:15;;;;;;;3.20;2.50;;;;;;;17.27;74.79;101727.63;20879833;28;20049;-76
2022/06/05 01:36:54;;;;;;;3.25;2.72;;;;;;;17.26;74.79;101734.00;20832173;28;20099;-75
2022/06/05 01:47:00;;;;;;;2.47;2.28;;;;;;;17.03;74.48;101677.34;20778840;28;20053;-76
2022/06/05 01:57:03;;;;;;;;;;;;;;;17.25;74.55;101703.53;20796611;28;20456;-76
2022/06/05 02:07:10;;;;;;;4.20;2.78;;;;;;;17.21;74.48;101685.88;20763419;28;19921;-76
2022/06/05 02:17:12;;;;;;;2.40;2.20;;;;;;;17.24;74.42;101664.16;20845371;28;20048;-76
2022/06/05 02:27:17;;;;;;;3.92;2.40;;;;;;;17.23;74.35;101640.03;20780511;28;20052;-76
2022/06/05 02:37:32;;;;;;;3.30;2.40;;;;;;;17.22;74.11;101644.53;20776697;28;20052;-76
2022/06/05 02:47:54;;;;;;;2.90;2.40;;;;;;;17.22;74.16;101622.16;20808172;28;20050;-76
2022/06/05 02:57:56;;;;;;;3.17;2.53;;;;;;;17.20;73.94;101598.03;20902076;28;20135;-76
2022/06/05 03:07:58;;;;;;;2.60;2.40;;;;;;;17.17;74.00;101584.81;20909729;28;20048;-75
2022/06/05 03:18:00;;;;;;;3.13;2.35;;;;;;;17.21;73.77;101575.53;20882423;28;20041;-76
2022/06/05 03:28:02;;;;;;;2.70;2.50;;;;;;;16.98;73.85;101522.63;20795166;28;20069;-76
2022/06/05 03:38:04;;;;;;;2.60;2.28;;;;;;;17.18;73.64;101562.31;20783033;28;20055;-75
2022/06/05 03:48:06;;;;;;;2.22;1.88;;;;;;;17.09;73.79;101541.50;20778234;28;20045;-75
2022/06/05 03:58:08;;;;;;;2.63;2.42;;;;;;;17.06;73.85;101530.97;20774648;28;20060;-74
2022/06/05 04:08:09;;;;;;;2.65;2.25;;;;;;;17.11;73.79;101542.25;20762220;28;20099;-75
2022/06/05 04:18:11;;;;;;;2.65;2.30;;;;;;;17.18;73.69;101527.34;20799401;28;20128;-75
2022/06/05 04:28:12;;;;;;;3.08;2.60;;;;;;;17.18;73.63;101511.22;20781888;28;20056;-74
2022/06/05 04:38:15;;;;;;;2.30;2.10;;;;;;;17.18;73.63;101491.53;20772578;28;20705;-75
2022/06/05 04:48:17;;;;;;;2.97;2.33;;;;;;;17.06;73.74;101455.66;20814531;28;20599;-74
2022/06/05 04:58:18;;;;;;;3.42;2.38;;;;;;;17.19;73.79;101487.88;20792419;28;20115;-75
2022/06/05 05:08:20;;;;;;;2.58;2.38;;;;;;;17.20;73.95;101474.28;20783175;28;20054;-75
2022/06/05 05:18:22;;;;;;;2.70;2.50;;;;;;;17.22;73.81;101485.78;20794405;28;20095;-75
2022/06/05 05:28:24;;;;;;;3.13;2.72;;;;;;;17.21;73.94;101470.59;20810037;28;20050;-75
2022/06/05 05:38:25;;;;;;;3.08;2.78;;;;;;;17.18;74.16;101468.16;20783678;28;20068;-75
2022/06/05 05:48:27;;;;;;;3.30;2.67;;;;;;;17.20;74.14;101476.97;20888812;28;20501;-75
2022/06/05 05:58:29;;;;;;;3.75;2.60;;;;;;;17.20;74.29;101471.59;20853800;28;20041;-75
2022/06/05 06:08:30;;;;;;;2.85;2.65;;;;;;;17.21;74.37;101467.91;20818668;28;20659;-75
2022/06/05 06:18:32;;;;;;;3.00;2.67;;;;;;;17.21;74.51;101467.91;20792821;28;20099;-75
2022/06/05 06:28:33;;;;;;;3.67;3.15;;;;;;;17.22;74.54;101471.47;20818042;28;20053;-75
2022/06/05 06:38:35;;;;;;;3.10;2.80;;;;;;;17.22;74.45;101458.03;20875759;28;20443;-74
2022/06/05 06:48:37;;;;;;;3.40;2.95;;;;;;;17.22;74.67;101456.19;20841065;28;20587;-75
2022/06/05 06:58:40;;;;;;;3.05;2.75;;;;;;;17.23;74.64;101440.91;20803081;28;20457;-78
2022/06/05 07:08:43;;;;;;;3.47;3.17;;;;;;;17.14;74.65;101414.72;20837608;28;20121;-76
2022/06/05 07:18:44;;;;;;;2.90;2.58;;;;;;;17.20;74.65;101425.84;20823124;28;20045;-75
2022/06/05 07:28:46;;;;;;;3.13;2.83;;;;;;;17.35;74.59;101439.09;20856724;28;20424;-75
2022/06/05 07:38:48;;;;;;;3.80;2.85;;;;;;;17.36;74.57;101411.22;20860849;28;20415;-76
2022/06/05 07:48:50;;;;;;;3.20;2.90;;;;;;;17.23;74.63;101387.09;20813061;28;20522;-75
2022/06/05 07:58:52;;;;;;;3.30;3.00;;;;;;;17.40;74.70;101399.22;20773291;28;20514;-75
2022/06/05 08:09:14;;;;;;;3.50;3.00;;;;;;;17.41;74.80;101384.78;20845414;28;20146;-75
2022/06/05 08:19:21;;;;;;;3.53;2.88;;;;;;;17.41;74.93;101352.50;20817050;28;20450;-75
2022/06/05 08:29:22;;;;;;;3.30;2.92;;;;;;;17.42;74.90;101338.06;20851252;28;20049;-75
2022/06/05 08:49:59;;;;;;;3.17;2.87;;;;;;;17.40;75.13;101294.25;20810545;28;20057;-75
2022/06/05 09:00:08;;;;;;;3.40;2.90;;;;;;;17.30;75.30;101258.31;20776102;28;20134;-75
2022/06/05 09:10:19;;;;;;;3.30;3.00;;;;;;;17.42;75.55;101268.06;20816931;28;20167;-76
2022/06/05 09:20:27;;;;;;;3.03;2.72;;;;;;;17.31;75.64;101242.03;20833833;28;20048;-75
2022/06/05 09:30:41;;;;;;;3.13;2.80;;;;;;;17.39;75.89;101223.41;20846822;28;20099;-75
2022/06/05 09:41:03;;;;;;;2.97;2.67;;;;;;;17.45;76.02;101207.75;20819980;28;20045;-75
2022/06/05 09:51:10;;;;;;;3.00;2.70;;;;;;;17.45;76.02;101214.00;20768613;28;20049;-75
2022/06/05 10:01:30;;;;;;;3.20;2.90;;;;;;;17.46;76.27;101206.78;20790418;28;20698;-75
2022/06/05 10:11:39;;;;;;;2.95;2.70;;;;;;;17.42;76.28;101200.78;20802597;28;20057;-76
2022/06/05 10:21:51;;;;;;;3.13;2.83;;;;;;;17.25;76.53;101149.22;20770617;28;20135;-75
2022/06/05 10:31:56;;;;;;;3.70;3.20;;;;;;;17.46;76.81;101175.34;20784967;28;20049;-75
2022/06/05 10:41:58;;;;;;;3.10;2.80;;;;;;;17.47;76.82;101173.50;20817938;28;20048;-76
2022/06/05 10:52:11;;;;;;;3.28;2.97;;;;;;;17.44;77.15;101153.06;20800895;28;20060;-76
2022/06/05 11:02:47;;;;;;;3.05;2.75;;;;;;;17.33;77.33;101128.91;20822395;28;20050;-76
2022/06/05 11:23:35;;;;;;;3.20;2.90;;;;;;;17.42;77.55;101111.97;20778195;28;20053;-75
2022/06/05 11:33:53;;;;;;;3.22;2.97;;;;;;;17.36;77.66;101091.81;20809824;28;20084;-75
2022/06/05 11:44:29;;;;;;;3.40;3.10;;;;;;;17.48;77.94;101100.69;20777919;28;20112;-75
2022/06/05 11:54:44;;;;;;;3.40;3.10;;;;;;;17.48;77.87;101091.78;20772011;28;20498;-76
2022/06/05 12:04:55;;;;;;;3.47;3.17;;;;;;;17.48;77.93;101089.94;20771938;28;20050;-75
2022/06/05 12:15:15;;;;;;;3.78;3.47;;;;;;;17.48;77.89;101073.78;20797484;28;20076;-76
2022/06/05 12:25:55;;;;;;;3.70;3.40;;;;;;;17.48;78.31;101065.69;20783164;28;20449;-75
2022/06/05 12:36:07;;;;;;;3.40;3.10;;;;;;;17.49;78.23;101053.13;20708060;28;20050;-75
2022/06/05 12:46:43;;;;;;;3.38;3.08;;;;;;;17.35;78.48;101012.06;20775076;28;20057;-75
2022/06/05 12:56:48;;;;;;;;;;;;;;;17.49;78.79;101032.41;20756251;28;20042;-75
2022/06/05 13:07:09;;;;;;;3.53;3.22;;;;;;;17.50;78.34;101011.75;20761209;28;20415;-74
2022/06/05 13:17:14;;;;;;;3.20;2.90;;;;;;;17.54;78.04;100997.88;20818620;28;20179;-74
2022/06/05 13:27:54;;;;;;;3.17;2.75;;;;;;;17.61;78.03;100981.19;20837632;28;20498;-75
2022/06/05 13:38:26;;;;;;;4.38;3.17;;;;;;;17.67;78.41;100969.88;20824216;28;20057;-75
2022/06/05 13:48:33;;;;;;;5.82;2.92;;;;;;;17.71;78.40;100955.22;20824897;28;20049;-76
2022/06/05 13:58:52;;;;;;;3.58;3.25;;;;;;;17.72;78.56;100953.34;20826271;28;20161;-75
2022/06/05 14:09:04;;;;;;;3.30;3.00;;;;;;;17.57;78.60;100909.78;20857787;28;20045;-75
2022/06/05 14:19:18;;;;;;;3.35;3.05;;;;;;;17.71;78.32;100928.28;20805623;28;20049;-75
2022/06/05 14:29:26;;;;;;;4.32;3.30;;;;;;;17.62;78.43;100918.28;20827174;28;20060;-74
2022/06/05 14:39:35;;;;;;;3.03;2.70;;;;;;;17.76;78.34;100941.31;20739949;28;20057;-75
2022/06/05 14:49:43;;;;;;;4.00;3.50;;;;;;;17.77;78.55;100934.94;20824817;28;20100;-74
2022/06/05 14:59:55;;;;;;;3.95;3.65;;;;;;;17.78;78.92;100928.56;20771283;28;20122;-74
2022/06/05 15:10:23;;;;;;;3.63;3.33;;;;;;;17.79;79.33;100928.44;20849758;28;20038;-75
2022/06/05 15:20:46;;;;;;;4.35;3.90;;;;;;;17.80;79.22;100916.69;20821587;28;20452;-77
2022/06/05 15:30:53;;;;;;;4.90;3.80;;;;;;;17.80;80.22;100914.00;20848579;28;20079;-74
2022/06/05 15:41:13;;;;;;;4.05;3.65;;;;;;;17.81;80.77;100912.16;20843128;28;20059;-74
2022/06/05 15:51:46;;;;;;;4.63;4.22;;;;;;;17.81;80.77;100910.31;20808427;28;20493;-74
2022/06/05 16:01:54;;;;;;;3.83;3.38;;;;;;;17.82;81.28;100919.22;20758014;28;20131;-74
2022/06/05 16:12:13;;;;;;;4.53;3.72;;;;;;;17.83;82.92;100915.56;20767729;28;20050;-74
2022/06/05 16:22:28;;;;;;;5.20;3.75;;;;;;;17.84;84.18;100925.34;20824555;28;20128;-75
2022/06/05 16:32:32;;;;;;;5.65;3.75;;;;;;;17.85;84.73;100915.44;20803182;28;20509;-76
2022/06/05 16:42:36;;;;;;;4.20;3.80;;;;;;;17.84;87.70;100901.09;20846310;28;20465;-74
2022/06/05 16:52:45;;;;;;;5.05;4.03;;;;;;;17.61;88.71;100838.53;20819480;28;20049;-79
2022/06/05 17:02:52;;;;;;;7.38;4.63;;;;;;;17.76;90.40;100858.72;20764107;28;20139;-78
2022/06/05 17:12:57;;;;;;;5.72;3.53;;;;;;;17.76;91.03;100858.72;20787417;28;20506;-78
2022/06/05 17:23:01;;;;;;;4.23;3.50;;;;;;;17.56;91.00;100814.72;20771343;28;20049;-79
2022/06/05 17:33:32;;;;;;;4.03;3.55;;;;;;;17.74;91.62;100827.50;20831608;28;20045;-77
2022/06/05 17:43:57;;;;;;;5.45;3.65;;;;;;;17.72;92.01;100811.50;20864121;28;20102;-77
2022/06/05 17:53:58;;;;;;;5.03;4.00;;;;;;;17.70;92.16;100800.03;20857715;28;20045;-77
2022/06/05 18:04:00;;;;;;;3.90;3.60;;;;;;;17.70;92.42;100794.66;20780918;28;20136;-77
2022/06/05 18:14:03;;;;;;;4.30;3.90;;;;;;;17.60;92.49;100775.78;20868110;28;20071;-77
2022/06/05 18:24:08;;;;;;;4.10;3.75;;;;;;;17.57;92.42;100769.78;20812074;28;20049;-77
2022/06/05 18:34:33;;;;;;;4.07;3.78;;;;;;;17.61;92.00;100766.69;20811852;28;20452;-77
2022/06/05 18:44:36;;;;;;;4.37;3.97;;;;;;;17.68;92.22;100764.31;20828601;28;20099;-77
2022/06/05 18:54:43;;;;;;;5.15;4.28;;;;;;;17.50;91.80;100737.22;20839134;28;20052;-77
2022/06/05 19:04:51;;;;;;;4.68;4.28;;;;;;;17.67;91.56;100752.69;20892604;28;20045;-77
2022/06/05 19:14:57;;;;;;;4.95;4.25;;;;;;;17.66;91.40;100731.28;20892149;28;20049;-77
2022/06/05 19:25:13;;;;;;;4.38;3.97;;;;;;;17.67;91.09;100719.50;20891384;28;20053;-77
2022/06/05 19:35:30;;;;;;;5.05;4.28;;;;;;;17.48;91.44;100659.28;20886741;28;20053;-77
2022/06/05 19:45:45;;;;;;;4.40;4.00;;;;;;;17.65;91.27;100673.03;20882924;28;20095;-77
2022/06/05 19:55:49;;;;;;;4.65;4.25;;;;;;;17.64;91.36;100671.34;20888985;28;20451;-77
2022/06/05 20:05:53;;;;;;;4.87;4.47;;;;;;;17.64;91.36;100674.91;20887113;28;20550;-77
2022/06/05 20:16:00;;;;;;;4.13;3.75;;;;;;;17.14;91.46;100575.41;20886240;28;20440;-77
2022/06/05 20:26:10;;;;;;;3.95;3.63;;;;;;;17.64;91.60;100655.19;20869919;28;20382;-77
2022/06/05 20:36:17;;;;;;;4.55;4.15;;;;;;;17.64;91.83;100639.03;20803245;28;20072;-77
2022/06/05 20:46:23;;;;;;;4.43;4.03;;;;;;;17.63;91.79;100630.13;20834588;28;20512;-77
2022/06/05 20:56:30;;;;;;;3.97;3.58;;;;;;;17.62;91.72;100612.28;20867105;28;20060;-77
2022/06/05 21:16:57;;;;;;;3.72;3.40;;;;;;;17.44;91.55;100573.56;20881407;28;20045;-77
2022/06/05 21:27:36;;;;;;;4.40;3.95;;;;;;;17.62;91.89;100593.44;20882577;28;20488;-77
2022/06/05 21:37:37;;;;;;;4.25;3.70;;;;;;;17.61;91.71;100574.72;20879942;28;20049;-77
2022/06/05 21:47:41;;;;;;;4.55;4.15;;;;;;;17.62;91.99;100579.09;20826521;28;20037;-77
2022/06/05 21:57:46;;;;;;;4.38;3.97;;;;;;;17.60;92.01;100560.41;20779641;28;20414;-77
2022/06/05 22:07:50;;;;;;;4.50;4.10;;;;;;;17.61;91.86;100561.25;20877938;28;20048;-76
2022/06/05 22:17:52;;;;;;;4.00;3.60;;;;;;;17.55;92.00;100541.16;20878239;28;20472;-77
2022/06/05 22:27:53;;;;;;;3.97;3.63;;;;;;;17.60;92.04;100543.41;20877749;28;20481;-77
2022/06/05 22:37:55;;;;;;;4.50;3.55;;;;;;;17.45;92.11;100525.00;20878318;28;20131;-76
2022/06/05 22:47:57;;;;;;;3.88;3.55;;;;;;;17.61;92.11;100542.41;20877808;28;20136;-77
2022/06/05 22:57:59;;;;;;;3.60;3.30;;;;;;;17.59;92.47;100529.13;20878117;28;20045;-77
2022/06/05 23:08:00;;;;;;;4.05;3.65;;;;;;;17.60;92.69;100529.94;20878867;28;20517;-76
2022/06/05 23:18:02;;;;;;;3.72;3.40;;;;;;;17.55;92.67;100519.63;20891934;28;20131;-77
2022/06/05 23:28:04;;;;;;;3.67;3.38;;;;;;;17.56;92.72;100533.91;20856461;28;20128;-77
2022/06/05 23:38:05;;;;;;;3.60;3.30;;;;;;;17.52;93.00;100520.75;20889062;28;20140;-77
2022/06/05 23:48:07;;;;;;;3.58;3.28;;;;;;;17.51;93.08;100531.69;20886927;28;20053;-77
2022/06/05 23:58:08;;;;;;;3.42;3.13;;;;;;;17.43;93.25;100531.50;20888377;28;20053;-77
